Accueil
METAR-TAF:

METAR-TAF

Aéroports :

Arnhem, Pays-Bas

latitude: 52-04N, longitude: 005-53E, altitude: 48 m

Observation

Le bulletin a été fait il y a 11 minutes, à 00:25 UTC
Vent 8 kt de nord-est, variant entre nord et est
Température -3°C
Humidité 86%
Pression 1025 hPa
Visibilité: 9000 m
brume sèche

METAR: EHDL 220025Z AUTO 05008KT 360V090 9000 HZ NCD M03/M05 Q1025 BLU

Heure: 01:36 (00:36 UTC)

Prévision

Le bulletin a été fait il y a 7 heures et 0 minutes, à 17:36 UTC
Prévision valable du 21 à 18 UTC au 22 à 06 UTC
Vent 4 kt de nord/nord-est
Visibilité: 8000 m

TAF: EHDL 211736Z 2118/2206 03004KT 8000 NSC

Observations et prévisions météorologiques de plus de 4000 aéroports (messages METAR et TAF).

Les stations disponibles sont représentées par des disques jaunes et rouges sur la carte.

Passer la souris dessus pour voir le nom de la station.

Cliquer dessus pour voir les observations et prévisions météorologiques.

Pour changer de carte: cliquez sur les boutons verts avec une croix noire pour zoomer, sur le bouton vert avec un tiret pour effectuer un zoom arrière, ou sur les flèches vertes pour les cartes adjacentes.


METAR-TAF: